Time;durP1;ratioP1;P1;durP2;ratioP2;P2;SDS_P1;SDS_P2;PMS_P1;PMS_P2;Temp;Humidity;BMP_temperature;BMP_pressure;BME280_temperature;BME280_humidity;BME280_pressure;Samples;Min_cycle;Max_cycle;Signal;HPM_P1;HPM_P2
2021/05/04 12:47:29;;;;;;;6.20;4.50;;;;;;;24.36;28.10;93665.13;5002477;28;20072;-87
2021/05/04 12:49:54;;;;;;;8.48;3.72;;;;;;;24.82;27.62;93681.53;5028276;28;20048;-88
2021/05/04 12:52:19;;;;;;;10.88;3.47;;;;;;;24.96;28.36;93659.22;5019276;28;20040;-88
2021/05/04 12:54:47;;;;;;;8.90;3.80;;;;;;;24.87;27.54;93640.66;5031226;28;20411;-86
2021/05/04 12:57:31;;;;;;;5.28;3.45;;;;;;;24.95;27.46;93671.97;5027107;28;20048;-84
2021/05/04 12:59:58;;;;;;;5.50;3.50;;;;;;;24.89;26.90;93692.41;5024724;28;20076;-84
2021/05/04 13:02:28;;;;;;;8.15;3.53;;;;;;;24.72;27.99;93692.31;5044169;28;21349;-85
2021/05/04 13:05:09;;;;;;;4.50;3.58;;;;;;;24.55;28.10;93683.72;5026085;28;20044;-85
2021/05/04 13:07:54;;;;;;;11.52;3.70;;;;;;;24.73;28.06;93683.81;5042653;28;20129;-85
2021/05/04 13:10:46;;;;;;;5.45;3.08;;;;;;;24.98;27.13;93673.09;5032497;28;20120;-85
2021/05/04 13:19:31;;;;;;;8.18;3.85;;;;;;;24.65;28.16;93665.25;4953087;28;20532;-86
2021/05/04 13:32:46;;;;;;;8.68;3.85;;;;;;;24.65;28.12;93630.13;5027096;28;20525;-84
2021/05/04 13:35:24;;;;;;;8.27;4.03;;;;;;;24.87;27.52;93639.88;5034184;28;20040;-87
2021/05/04 13:48:25;;;;;;;10.27;3.30;;;;;;;24.88;28.17;93607.06;5051279;28;20078;-86
2021/05/04 13:50:50;;;;;;;5.13;3.47;;;;;;;25.01;27.77;93616.38;5032685;28;20072;-86
2021/05/04 13:53:16;;;;;;;8.68;4.07;;;;;;;24.85;26.93;93594.28;5038445;28;20073;-86
2021/05/04 13:55:42;;;;;;;5.53;3.97;;;;;;;24.92;27.10;93609.78;5018589;28;20124;-86
2021/05/04 13:58:12;;;;;;;9.95;6.32;;;;;;;24.68;27.99;93578.03;5042161;28;20054;-87
2021/05/04 14:01:01;;;;;;;6.82;3.47;;;;;;;24.82;27.92;93583.47;5016860;28;20056;-88
2021/05/04 14:03:36;;;;;;;12.68;4.18;;;;;;;24.69;27.59;93582.25;5050418;28;20041;-88
2021/05/04 14:27:48;;;;;;;9.50;3.30;;;;;;;24.54;28.81;93611.16;5051650;28;20045;-87
2021/05/04 14:30:16;;;;;;;7.82;3.67;;;;;;;24.51;29.30;93580.28;5048237;28;20465;-87
2021/05/04 14:32:41;;;;;;;6.47;3.42;;;;;;;24.55;28.38;93562.16;5047787;28;20044;-87
2021/05/04 14:35:12;;;;;;;10.40;3.63;;;;;;;24.80;28.89;93597.34;5028118;28;20036;-86
2021/05/04 15:03:59;;;;;;;7.60;3.20;;;;;;;23.85;31.72;93580.75;5049277;28;20342;-83
2021/05/04 15:06:24;;;;;;;11.95;3.65;;;;;;;23.88;31.19;93594.25;5028193;28;20146;-82
2021/05/04 15:08:49;;;;;;;8.00;4.97;;;;;;;23.70;32.20;93579.88;5026443;28;20364;-83
2021/05/04 15:11:15;;;;;;;7.72;4.50;;;;;;;23.58;32.18;93572.84;5036777;28;20040;-81
2021/05/04 15:13:44;;;;;;;6.07;3.53;;;;;;;23.71;32.67;93573.31;5030775;28;20045;-81
2021/05/04 15:23:46;;;;;;;10.65;2.92;;;;;;;23.52;32.81;93571.66;5034810;28;20119;-82
2021/05/04 15:26:11;;;;;;;8.52;3.83;;;;;;;23.39;32.56;93564.97;5038455;28;20520;-82
2021/05/04 15:28:37;;;;;;;7.75;3.60;;;;;;;23.44;33.21;93578.13;5028333;28;20084;-82
2021/05/04 15:31:03;;;;;;;11.43;3.35;;;;;;;23.18;32.96;93559.41;5031416;28;20029;-82
2021/05/04 15:33:33;;;;;;;6.75;4.03;;;;;;;23.02;33.58;93562.34;5048880;28;20044;-81
2021/05/04 15:35:59;;;;;;;6.80;3.65;;;;;;;22.99;32.93;93568.50;5048905;28;20962;-81
2021/05/04 15:38:25;;;;;;;5.53;3.63;;;;;;;23.02;33.15;93577.78;5048058;28;20063;-82
2021/05/04 15:40:51;;;;;;;7.70;3.67;;;;;;;22.85;33.54;93574.53;5044176;28;20426;-82
2021/05/04 15:43:17;;;;;;;5.97;4.05;;;;;;;22.88;33.57;93576.47;5029575;28;20049;-81
2021/05/04 15:48:30;;;;;;;6.80;3.65;;;;;;;22.73;34.37;93568.63;5047554;28;20090;-81
2021/05/04 15:51:21;;;;;;;5.18;3.22;;;;;;;22.69;34.65;93562.41;5014564;28;20051;-82
2021/05/04 16:07:06;;;;;;;6.30;3.97;;;;;;;22.20;36.14;93565.31;5041687;28;20462;-83
2021/05/04 16:09:38;;;;;;;13.23;4.47;;;;;;;22.14;36.09;93547.97;5042894;28;20067;-84
2021/05/04 16:12:04;;;;;;;8.13;4.82;;;;;;;22.22;36.40;93533.44;5041658;28;20041;-83
2021/05/04 16:14:30;;;;;;;6.82;4.30;;;;;;;22.39;36.15;93546.31;5042892;28;20094;-84
2021/05/04 16:16:55;;;;;;;6.15;4.50;;;;;;;22.30;35.63;93548.53;5040321;28;20032;-84
2021/05/04 16:19:24;;;;;;;8.35;4.47;;;;;;;22.20;36.36;93543.78;5045116;28;20491;-84
2021/05/04 16:21:52;;;;;;;7.32;3.72;;;;;;;22.00;36.39;93522.44;5049809;28;20024;-84
2021/05/04 16:29:41;;;;;;;9.75;4.18;;;;;;;22.15;37.00;93533.34;5036696;28;20125;-84
2021/05/04 16:32:07;;;;;;;9.38;3.35;;;;;;;22.13;36.88;93536.44;5041965;28;20420;-83
2021/05/04 16:34:32;;;;;;;7.82;4.10;;;;;;;21.98;37.41;93530.09;5045301;28;20052;-83
2021/05/04 16:36:58;;;;;;;6.80;4.13;;;;;;;21.76;37.77;93512.09;5044941;28;20075;-84
2021/05/04 16:39:23;;;;;;;6.88;4.30;;;;;;;21.68;38.37;93518.53;5041364;28;20069;-83
2021/05/04 16:41:49;;;;;;;5.55;4.10;;;;;;;21.81;37.76;93527.94;5044563;28;20049;-83
2021/05/04 16:44:14;;;;;;;6.07;4.22;;;;;;;21.74;38.15;93519.00;5042547;28;22914;-83
2021/05/04 16:46:59;;;;;;;7.28;4.35;;;;;;;21.77;38.16;93532.50;5037889;28;20483;-83
2021/05/04 16:49:33;;;;;;;15.48;5.13;;;;;;;21.81;38.44;93527.16;5025275;28;20055;-83
2021/05/04 16:52:02;;;;;;;8.55;3.90;;;;;;;21.52;38.85;93521.41;5025129;28;20033;-83
2021/05/04 16:54:27;;;;;;;6.07;4.50;;;;;;;21.42;38.91;93510.50;5041070;28;20086;-83
2021/05/04 16:56:53;;;;;;;6.85;3.80;;;;;;;21.49;39.31;93515.97;5031440;28;20095;-83
2021/05/04 16:59:19;;;;;;;10.30;4.22;;;;;;;21.57;39.79;93517.63;5036803;28;20053;-83
2021/05/04 17:01:45;;;;;;;11.68;5.03;;;;;;;21.55;40.07;93514.53;5041192;28;20057;-83
2021/05/04 17:04:10;;;;;;;8.00;5.35;;;;;;;21.54;40.83;93502.22;5030590;28;20036;-83
2021/05/04 17:11:43;;;;;;;6.90;4.45;;;;;;;21.41;40.80;93514.31;5031612;28;20037;-83
2021/05/04 17:14:09;;;;;;;7.22;5.47;;;;;;;21.03;42.66;93494.53;5034175;28;20088;-83
2021/05/04 17:16:35;;;;;;;14.68;6.18;;;;;;;20.92;43.79;93508.94;5042748;28;20051;-82
2021/05/04 17:19:01;;;;;;;8.80;4.82;;;;;;;20.70;41.81;93481.75;5031458;28;20290;-82
2021/05/04 17:21:27;;;;;;;13.20;5.78;;;;;;;20.77;42.82;93502.56;5045476;28;20029;-82
2021/05/04 17:23:53;;;;;;;9.23;4.65;;;;;;;20.42;42.97;93491.25;5035046;28;20055;-82
2021/05/04 17:26:18;;;;;;;8.85;5.32;;;;;;;20.22;44.40;93469.78;5035227;28;20052;-82
2021/05/04 17:28:44;;;;;;;10.02;4.97;;;;;;;20.22;44.87;93493.16;5048520;28;20434;-82
2021/05/04 17:31:10;;;;;;;11.32;5.28;;;;;;;20.02;42.78;93495.09;5046152;28;20372;-82
2021/05/04 17:33:38;;;;;;;5.90;4.63;;;;;;;19.92;42.24;93503.69;5033897;28;20062;-83
2021/05/04 17:36:04;;;;;;;9.85;4.35;;;;;;;19.85;41.93;93507.00;5036885;28;20088;-83
2021/05/04 17:38:32;;;;;;;9.10;4.75;;;;;;;19.74;42.86;93505.25;5048047;28;20043;-83
2021/05/04 17:41:00;;;;;;;7.88;4.55;;;;;;;19.52;43.29;93513.97;5047039;28;20120;-83
2021/05/04 17:43:26;;;;;;;6.95;5.22;;;;;;;19.35;43.92;93513.19;5047190;28;20041;-83
2021/05/04 17:45:51;;;;;;;8.57;5.10;;;;;;;19.29;43.73;93509.25;5029659;28;20051;-82
2021/05/04 17:48:17;;;;;;;9.82;5.07;;;;;;;19.19;44.29;93514.38;5045980;28;20072;-83
2021/05/04 17:50:43;;;;;;;9.07;5.20;;;;;;;19.13;44.06;93499.69;5039771;28;20052;-83
2021/05/04 17:53:12;;;;;;;8.05;5.70;;;;;;;19.30;44.08;93502.00;5038572;28;20052;-83
2021/05/04 17:55:39;;;;;;;9.43;5.50;;;;;;;19.08;43.93;93498.06;5047235;28;20045;-83
2021/05/04 17:58:04;;;;;;;6.85;5.65;;;;;;;19.16;44.14;93505.13;5051666;28;20037;-83
2021/05/04 18:00:30;;;;;;;10.57;5.65;;;;;;;19.09;44.65;93491.59;5049528;28;20051;-83
2021/05/04 18:02:56;;;;;;;6.05;4.88;;;;;;;19.10;44.35;93509.22;5028754;28;20426;-83
2021/05/04 18:05:21;;;;;;;9.65;5.60;;;;;;;19.14;45.23;93526.13;5032048;28;20053;-82
2021/05/04 18:07:49;;;;;;;10.57;4.82;;;;;;;19.22;45.18;93524.38;5042946;28;20186;-82
2021/05/04 18:10:17;;;;;;;13.05;5.75;;;;;;;19.06;44.72;93513.69;5014744;28;20037;-84
2021/05/04 18:24:22;;;;;;;9.10;5.03;;;;;;;18.15;46.58;93518.28;4934468;28;20131;-83
2021/05/04 18:27:01;;;;;;;;;;;;;;;;;;;;;
2021/05/04 18:33:24;;;;;;;5.95;5.07;;;;;;;18.17;46.99;93542.81;4770626;29;20066;-82
2021/05/04 19:07:13;;;;;;;5.72;4.82;;;;;;;17.82;47.96;93539.16;5052843;28;20585;-82
2021/05/04 19:10:06;;;;;;;5.25;4.20;;;;;;;17.86;48.17;93545.38;5045738;28;20045;-82
2021/05/04 19:23:48;;;;;;;11.63;3.97;;;;;;;17.54;48.32;93547.13;5036335;28;20426;-82
2021/05/04 20:11:51;;;;;;;6.03;4.00;;;;;;;16.99;50.02;93567.19;5049149;28;20395;-82
2021/05/04 20:14:16;;;;;;;7.25;3.75;;;;;;;17.00;49.50;93562.63;5045742;28;20036;-82
2021/05/04 20:16:42;;;;;;;8.65;3.85;;;;;;;17.09;49.83;93563.31;5043976;28;20045;-82
2021/05/04 20:19:10;;;;;;;6.43;4.00;;;;;;;17.07;49.54;93560.19;5050990;28;20033;-82
2021/05/04 20:21:35;;;;;;;8.15;4.05;;;;;;;16.95;49.41;93541.50;5046675;28;20083;-82
2021/05/04 20:24:01;;;;;;;8.40;3.95;;;;;;;17.03;49.47;93565.41;5034251;28;20040;-82
2021/05/04 20:26:27;;;;;;;9.05;4.43;;;;;;;17.03;49.44;93559.28;5047418;28;20094;-82
2021/05/04 20:28:52;;;;;;;3.88;3.45;;;;;;;16.84;49.91;93560.63;5049055;28;20690;-83
2021/05/04 20:31:18;;;;;;;5.35;4.05;;;;;;;16.88;50.17;93563.41;5045563;28;20713;-82
2021/05/04 20:33:44;;;;;;;5.57;3.50;;;;;;;16.92;49.85;93566.97;5048958;28;20111;-82
2021/05/04 20:36:09;;;;;;;8.85;4.53;;;;;;;16.97;48.88;93571.28;5042837;28;20527;-82
2021/05/04 20:38:36;;;;;;;8.10;3.90;;;;;;;16.92;49.80;93556.28;5045978;28;20056;-83
2021/05/04 20:41:02;;;;;;;7.07;4.38;;;;;;;16.89;50.48;93571.09;5026808;28;20553;-82
2021/05/04 20:43:28;;;;;;;10.40;4.72;;;;;;;16.95;50.07;93573.53;5032324;28;20476;-82
2021/05/04 20:45:54;;;;;;;6.85;4.53;;;;;;;16.92;50.63;93569.63;5038240;28;20141;-82
2021/05/04 20:48:20;;;;;;;10.55;5.93;;;;;;;16.84;51.30;93557.97;5049250;28;20135;-82
2021/05/04 20:50:48;;;;;;;5.35;4.30;;;;;;;16.78;49.90;93566.50;5047410;28;20380;-82
2021/05/04 20:53:14;;;;;;;6.15;5.03;;;;;;;16.77;51.80;93581.72;5047918;28;20280;-82
2021/05/04 20:55:41;;;;;;;11.13;5.85;;;;;;;16.68;51.55;93570.38;5033706;28;20044;-82
2021/05/04 20:58:08;;;;;;;6.82;4.93;;;;;;;16.69;51.68;93589.84;5036337;28;20401;-83
2021/05/04 21:00:33;;;;;;;11.82;5.82;;;;;;;16.68;52.07;93583.72;5048283;28;20075;-82
2021/05/04 21:03:00;;;;;;;9.25;5.60;;;;;;;16.68;52.43;93575.72;5045204;28;20135;-82
2021/05/04 21:05:26;;;;;;;11.32;7.25;;;;;;;16.66;52.21;93577.97;5050026;28;20123;-82
2021/05/04 21:07:52;;;;;;;16.65;8.55;;;;;;;16.61;52.64;93580.84;5047654;28;20044;-82
2021/05/04 21:12:54;;;;;;;12.93;6.63;;;;;;;16.64;52.35;93569.50;5052823;28;20470;-82
2021/05/04 21:15:22;;;;;;;11.70;7.65;;;;;;;16.59;52.51;93571.59;5029989;28;20102;-82
2021/05/04 21:17:55;;;;;;;7.25;5.55;;;;;;;16.51;53.46;93575.13;5040795;28;20060;-82
2021/05/04 21:20:25;;;;;;;22.35;9.80;;;;;;;16.56;53.15;93567.69;5048083;28;20151;-82
2021/05/04 21:27:53;;;;;;;12.35;5.78;;;;;;;16.44;54.23;93559.63;5052192;28;20120;-83
2021/05/04 21:30:19;;;;;;;19.33;9.30;;;;;;;16.33;53.70;93564.59;5049833;28;20052;-82
2021/05/04 21:32:45;;;;;;;42.50;16.48;;;;;;;16.35;52.82;93564.28;5046408;28;20083;-82
2021/05/04 21:35:15;;;;;;;19.38;9.73;;;;;;;16.33;53.02;93569.94;5045064;28;20472;-83
2021/05/04 21:37:42;;;;;;;9.48;5.97;;;;;;;16.34;53.59;93562.72;5033204;28;20051;-82
2021/05/04 21:40:08;;;;;;;11.63;5.68;;;;;;;16.42;53.50;93551.19;5012058;28;20076;-83
2021/05/04 21:42:34;;;;;;;20.95;10.00;;;;;;;16.39;53.10;93557.19;5028378;28;20120;-83
2021/05/04 21:44:59;;;;;;;10.07;5.35;;;;;;;16.35;52.75;93548.28;5028539;28;20411;-82
2021/05/04 21:47:25;;;;;;;51.58;25.70;;;;;;;16.42;53.15;93556.50;5023176;28;20622;-83
2021/05/04 21:49:50;;;;;;;10.77;8.27;;;;;;;16.54;52.40;93561.09;5029064;28;20056;-82
2021/05/04 21:52:19;;;;;;;7.30;5.00;;;;;;;16.53;52.64;93572.88;5028211;28;20033;-81
2021/05/04 21:54:47;;;;;;;8.85;5.35;;;;;;;16.39;52.32;93563.28;5031385;28;20527;-82
2021/05/04 21:57:13;;;;;;;12.05;5.88;;;;;;;16.39;53.59;93557.97;5029369;28;20049;-82
2021/05/04 21:59:38;;;;;;;6.30;4.65;;;;;;;16.53;53.00;93565.66;5027711;28;20503;-83
2021/05/04 22:02:05;;;;;;;8.73;5.40;;;;;;;16.60;52.55;93552.59;5042110;28;20334;-82
2021/05/04 22:04:30;;;;;;;8.18;5.22;;;;;;;16.50;52.74;93555.66;5026820;28;20151;-82
2021/05/04 22:06:56;;;;;;;5.97;5.15;;;;;;;16.62;52.46;93560.25;5028825;28;20112;-83
2021/05/04 22:09:25;;;;;;;5.55;4.55;;;;;;;16.51;51.96;93549.22;5029445;28;20045;-82
2021/05/04 22:11:54;;;;;;;9.90;6.25;;;;;;;16.50;53.22;93545.00;5033402;28;20077;-82
2021/05/04 22:14:39;;;;;;;9.02;5.82;;;;;;;16.40;53.87;93550.75;5031063;28;20050;-83
2021/05/04 22:36:01;;;;;;;7.97;5.20;;;;;;;16.12;55.63;93523.91;5030014;28;20112;-82
2021/05/04 22:38:28;;;;;;;7.00;5.50;;;;;;;16.04;55.57;93522.88;5030719;28;20132;-82
2021/05/04 22:41:24;;;;;;;6.97;5.15;;;;;;;16.04;55.54;93525.53;5029068;28;20036;-82
2021/05/04 23:18:39;;;;;;;8.02;5.20;;;;;;;15.63;57.38;93472.34;5049605;28;20041;-82
2021/05/04 23:21:04;;;;;;;7.32;5.47;;;;;;;15.79;57.11;93488.47;5049426;28;20040;-82
2021/05/04 23:23:30;;;;;;;8.50;5.80;;;;;;;15.77;57.17;93477.38;5018505;28;20045;-82
2021/05/04 23:25:55;;;;;;;6.57;5.05;;;;;;;15.82;57.18;93483.28;5030608;28;20045;-82
2021/05/04 23:28:21;;;;;;;11.23;6.07;;;;;;;15.86;58.12;93497.50;5030574;28;20033;-83
2021/05/04 23:30:46;;;;;;;8.35;5.80;;;;;;;15.77;58.10;93493.34;5053018;28;20031;-82
2021/05/04 23:33:12;;;;;;;11.30;5.93;;;;;;;15.89;57.97;93504.84;5033516;28;20056;-82
2021/05/04 23:35:37;;;;;;;7.78;5.65;;;;;;;15.98;57.51;93510.84;5022587;28;20044;-82
2021/05/04 23:38:03;;;;;;;9.35;6.00;;;;;;;16.03;57.58;93502.66;5046864;28;20058;-82
2021/05/04 23:40:28;;;;;;;6.70;4.90;;;;;;;16.07;57.75;93502.00;5050674;28;20046;-82
2021/05/04 23:42:54;;;;;;;11.60;7.30;;;;;;;16.08;56.56;93500.91;5052358;28;20279;-82
2021/05/04 23:45:19;;;;;;;13.68;5.20;;;;;;;16.00;55.23;93498.00;4996419;28;20065;-82
2021/05/04 23:47:45;;;;;;;8.77;5.03;;;;;;;16.04;55.34;93498.88;4991883;28;20046;-82
2021/05/04 23:50:11;;;;;;;10.52;5.50;;;;;;;16.02;56.60;93490.44;5009385;28;20042;-82
2021/05/04 23:52:36;;;;;;;9.93;5.15;;;;;;;15.87;57.03;93499.06;5009378;28;20381;-82
2021/05/04 23:55:02;;;;;;;13.73;5.50;;;;;;;15.81;56.75;93495.03;5014803;28;20069;-82
2021/05/04 23:57:28;;;;;;;8.93;5.28;;;;;;;15.68;56.07;93469.47;5013616;28;20033;-83
2021/05/04 23:59:53;;;;;;;5.25;4.72;;;;;;;15.86;56.50;93494.84;5011072;28;20502;-82
